sensor_id;sensor_type;location;lat;lon;timestamp;pressure;altitude;pressure_sealevel;temperature;humidity
34586;BME280;20816;50.950;11.108;2023-05-14T00:00:50;98690.44;;;11.70;100.00
34586;BME280;20816;50.950;11.108;2023-05-14T00:03:16;98689.50;;;11.73;100.00
34586;BME280;20816;50.950;11.108;2023-05-14T00:05:43;98694.69;;;11.76;100.00
34586;BME280;20816;50.950;11.108;2023-05-14T00:08:10;98691.09;;;11.80;100.00
34586;BME280;20816;50.950;11.108;2023-05-14T00:10:36;98685.66;;;11.86;100.00
34586;BME280;20816;50.950;11.108;2023-05-14T00:13:03;98692.59;;;11.90;100.00
34586;BME280;20816;50.950;11.108;2023-05-14T00:15:29;98685.44;;;11.95;100.00
34586;BME280;20816;50.950;11.108;2023-05-14T00:17:59;98687.16;;;11.96;100.00
34586;BME280;20816;50.950;11.108;2023-05-14T00:20:26;98688.03;;;11.97;100.00
34586;BME280;20816;50.950;11.108;2023-05-14T00:22:52;98680.81;;;12.03;100.00
34586;BME280;20816;50.950;11.108;2023-05-14T00:25:19;98679.06;;;12.04;100.00
34586;BME280;20816;50.950;11.108;2023-05-14T00:27:45;98681.69;;;12.04;100.00
34586;BME280;20816;50.950;11.108;2023-05-14T00:30:12;98678.19;;;12.03;100.00
34586;BME280;20816;50.950;11.108;2023-05-14T00:32:38;98683.56;;;12.00;100.00
34586;BME280;20816;50.950;11.108;2023-05-14T00:35:05;98681.03;;;11.96;100.00
34586;BME280;20816;50.950;11.108;2023-05-14T00:37:32;98681.22;;;11.90;100.00
34586;BME280;20816;50.950;11.108;2023-05-14T00:39:58;98682.34;;;11.78;100.00
34586;BME280;20816;50.950;11.108;2023-05-14T00:42:25;98671.03;;;11.74;100.00
34586;BME280;20816;50.950;11.108;2023-05-14T00:44:52;98676.16;;;11.79;100.00
34586;BME280;20816;50.950;11.108;2023-05-14T00:47:19;98678.69;;;11.85;100.00
34586;BME280;20816;50.950;11.108;2023-05-14T00:49:46;98675.84;;;11.93;100.00
34586;BME280;20816;50.950;11.108;2023-05-14T00:52:14;98673.94;;;11.99;100.00
34586;BME280;20816;50.950;11.108;2023-05-14T00:54:41;98675.91;;;11.91;100.00
34586;BME280;20816;50.950;11.108;2023-05-14T00:57:08;98669.91;;;11.85;100.00
34586;BME280;20816;50.950;11.108;2023-05-14T00:59:35;98676.09;;;11.84;100.00
34586;BME280;20816;50.950;11.108;2023-05-14T01:02:01;98678.59;;;11.88;100.00
34586;BME280;20816;50.950;11.108;2023-05-14T01:04:28;98675.75;;;11.96;100.00
34586;BME280;20816;50.950;11.108;2023-05-14T01:10:13;98676.50;;;12.01;100.00
34586;BME280;20816;50.950;11.108;2023-05-14T01:13:09;98675.75;;;11.96;100.00
34586;BME280;20816;50.950;11.108;2023-05-14T01:15:38;98676.81;;;11.90;100.00
34586;BME280;20816;50.950;11.108;2023-05-14T01:18:08;98676.88;;;11.87;100.00
34586;BME280;20816;50.950;11.108;2023-05-14T01:20:35;98672.34;;;11.92;100.00
34586;BME280;20816;50.950;11.108;2023-05-14T01:23:02;98671.53;;;11.90;100.00
34586;BME280;20816;50.950;11.108;2023-05-14T01:25:30;98680.34;;;11.89;100.00
34586;BME280;20816;50.950;11.108;2023-05-14T01:28:02;98673.31;;;11.88;100.00
34586;BME280;20816;50.950;11.108;2023-05-14T01:30:36;98669.88;;;11.86;100.00
34586;BME280;20816;50.950;11.108;2023-05-14T01:33:10;98674.28;;;11.86;100.00
34586;BME280;20816;50.950;11.108;2023-05-14T01:35:39;98662.31;;;11.71;100.00
34586;BME280;20816;50.950;11.108;2023-05-14T01:38:09;98665.88;;;11.70;100.00
34586;BME280;20816;50.950;11.108;2023-05-14T01:40:37;98663.31;;;11.67;100.00
34586;BME280;20816;50.950;11.108;2023-05-14T01:43:04;98667.72;;;11.66;100.00
34586;BME280;20816;50.950;11.108;2023-05-14T01:45:34;98665.13;;;11.65;100.00
34586;BME280;20816;50.950;11.108;2023-05-14T01:48:01;98668.59;;;11.67;100.00
34586;BME280;20816;50.950;11.108;2023-05-14T01:50:28;98661.50;;;11.69;100.00
34586;BME280;20816;50.950;11.108;2023-05-14T01:52:54;98650.88;;;11.72;100.00
34586;BME280;20816;50.950;11.108;2023-05-14T01:55:22;98653.66;;;11.67;100.00
34586;BME280;20816;50.950;11.108;2023-05-14T01:57:50;98658.13;;;11.64;100.00
34586;BME280;20816;50.950;11.108;2023-05-14T02:00:17;98654.75;;;11.59;100.00
34586;BME280;20816;50.950;11.108;2023-05-14T02:02:44;98656.56;;;11.57;100.00
34586;BME280;20816;50.950;11.108;2023-05-14T02:05:11;98654.91;;;11.52;100.00
34586;BME280;20816;50.950;11.108;2023-05-14T02:07:38;98657.81;;;11.42;100.00
34586;BME280;20816;50.950;11.108;2023-05-14T02:10:05;98658.72;;;11.39;100.00
34586;BME280;20816;50.950;11.108;2023-05-14T02:12:32;98657.16;;;11.32;100.00
34586;BME280;20816;50.950;11.108;2023-05-14T02:14:59;98654.66;;;11.26;100.00
34586;BME280;20816;50.950;11.108;2023-05-14T02:17:25;98652.19;;;11.20;100.00
34586;BME280;20816;50.950;11.108;2023-05-14T02:19:52;98650.59;;;11.13;100.00
34586;BME280;20816;50.950;11.108;2023-05-14T02:22:19;98649.72;;;11.12;100.00
34586;BME280;20816;50.950;11.108;2023-05-14T02:24:45;98642.88;;;11.05;100.00
34586;BME280;20816;50.950;11.108;2023-05-14T02:27:12;98650.84;;;11.02;100.00
34586;BME280;20816;50.950;11.108;2023-05-14T02:29:38;98645.66;;;10.98;100.00
34586;BME280;20816;50.950;11.108;2023-05-14T02:32:05;98650.16;;;10.94;100.00
34586;BME280;20816;50.950;11.108;2023-05-14T02:34:33;98648.38;;;10.94;100.00
34586;BME280;20816;50.950;11.108;2023-05-14T02:36:59;98646.69;;;10.92;100.00
34586;BME280;20816;50.950;11.108;2023-05-14T02:39:26;98644.16;;;10.87;100.00
34586;BME280;20816;50.950;11.108;2023-05-14T02:41:53;98640.69;;;10.85;100.00
34586;BME280;20816;50.950;11.108;2023-05-14T02:44:20;98647.91;;;10.77;100.00
34586;BME280;20816;50.950;11.108;2023-05-14T02:46:46;98642.63;;;10.77;100.00
34586;BME280;20816;50.950;11.108;2023-05-14T02:49:13;98634.75;;;10.77;100.00
34586;BME280;20816;50.950;11.108;2023-05-14T02:51:40;98640.97;;;10.73;100.00
34586;BME280;20816;50.950;11.108;2023-05-14T02:54:06;98641.25;;;10.61;100.00
34586;BME280;20816;50.950;11.108;2023-05-14T02:56:33;98637.78;;;10.59;100.00
34586;BME280;20816;50.950;11.108;2023-05-14T02:58:59;98640.56;;;10.50;100.00
34586;BME280;20816;50.950;11.108;2023-05-14T03:01:26;98637.94;;;10.50;100.00
34586;BME280;20816;50.950;11.108;2023-05-14T03:03:54;98640.56;;;10.50;100.00
34586;BME280;20816;50.950;11.108;2023-05-14T03:06:20;98638.94;;;10.46;100.00
34586;BME280;20816;50.950;11.108;2023-05-14T03:08:47;98633.03;;;10.34;100.00
34586;BME280;20816;50.950;11.108;2023-05-14T03:11:14;98633.88;;;10.36;100.00
34586;BME280;20816;50.950;11.108;2023-05-14T03:13:40;98628.06;;;10.19;100.00
34586;BME280;20816;50.950;11.108;2023-05-14T03:16:07;98622.03;;;10.14;100.00
34586;BME280;20816;50.950;11.108;2023-05-14T03:18:33;98629.97;;;10.11;100.00
34586;BME280;20816;50.950;11.108;2023-05-14T03:21:02;98624.75;;;10.08;100.00
34586;BME280;20816;50.950;11.108;2023-05-14T03:23:29;98619.56;;;10.05;100.00
34586;BME280;20816;50.950;11.108;2023-05-14T03:25:57;98618.59;;;10.09;100.00
34586;BME280;20816;50.950;11.108;2023-05-14T03:28:24;98628.09;;;10.16;100.00
34586;BME280;20816;50.950;11.108;2023-05-14T03:30:51;98619.38;;;10.14;100.00
34586;BME280;20816;50.950;11.108;2023-05-14T03:33:18;98622.81;;;10.19;100.00
34586;BME280;20816;50.950;11.108;2023-05-14T03:35:44;98619.38;;;10.14;100.00
34586;BME280;20816;50.950;11.108;2023-05-14T03:38:11;98621.97;;;10.16;100.00
34586;BME280;20816;50.950;11.108;2023-05-14T03:40:38;98624.56;;;10.19;100.00
34586;BME280;20816;50.950;11.108;2023-05-14T03:43:04;98628.00;;;10.22;100.00
34586;BME280;20816;50.950;11.108;2023-05-14T03:45:31;98621.81;;;10.25;100.00
34586;BME280;20816;50.950;11.108;2023-05-14T03:47:58;98624.44;;;10.26;100.00
34586;BME280;20816;50.950;11.108;2023-05-14T03:50:25;98612.22;;;10.24;100.00
34586;BME280;20816;50.950;11.108;2023-05-14T03:52:52;98619.31;;;10.17;100.00
34586;BME280;20816;50.950;11.108;2023-05-14T03:55:19;98617.75;;;10.10;100.00
34586;BME280;20816;50.950;11.108;2023-05-14T03:57:47;98619.63;;;10.03;100.00
34586;BME280;20816;50.950;11.108;2023-05-14T04:00:14;98612.59;;;10.04;100.00
34586;BME280;20816;50.950;11.108;2023-05-14T04:02:41;98614.31;;;10.05;100.00
34586;BME280;20816;50.950;11.108;2023-05-14T04:05:08;98612.50;;;10.08;100.00
34586;BME280;20816;50.950;11.108;2023-05-14T04:07:35;98613.34;;;10.10;100.00
34586;BME280;20816;50.950;11.108;2023-05-14T04:10:02;98614.25;;;10.08;100.00
34586;BME280;20816;50.950;11.108;2023-05-14T04:12:30;98609.69;;;10.18;100.00
34586;BME280;20816;50.950;11.108;2023-05-14T04:14:57;98614.81;;;10.27;100.00
34586;BME280;20816;50.950;11.108;2023-05-14T04:17:24;98611.31;;;10.26;100.00
34586;BME280;20816;50.950;11.108;2023-05-14T04:19:51;98608.41;;;10.38;100.00
34586;BME280;20816;50.950;11.108;2023-05-14T04:22:18;98606.78;;;10.34;100.00
34586;BME280;20816;50.950;11.108;2023-05-14T04:24:45;98609.56;;;10.27;100.00
34586;BME280;20816;50.950;11.108;2023-05-14T04:27:18;98610.34;;;10.30;100.00
34586;BME280;20816;50.950;11.108;2023-05-14T04:29:45;98612.81;;;10.38;100.00
34586;BME280;20816;50.950;11.108;2023-05-14T04:32:12;98617.78;;;10.50;100.00
34586;BME280;20816;50.950;11.108;2023-05-14T04:34:40;98617.53;;;10.62;100.00
34586;BME280;20816;50.950;11.108;2023-05-14T04:37:06;98623.47;;;10.72;100.00
34586;BME280;20816;50.950;11.108;2023-05-14T04:39:33;98623.19;;;10.84;100.00
34586;BME280;20816;50.950;11.108;2023-05-14T04:42:00;98622.00;;;10.98;100.00
34586;BME280;20816;50.950;11.108;2023-05-14T04:44:26;98622.63;;;11.09;100.00
34586;BME280;20816;50.950;11.108;2023-05-14T04:46:53;98624.16;;;11.19;100.00
34586;BME280;20816;50.950;11.108;2023-05-14T04:49:20;98626.50;;;11.30;100.00
34586;BME280;20816;50.950;11.108;2023-05-14T04:51:47;98608.75;;;11.38;100.00
34586;BME280;20816;50.950;11.108;2023-05-14T04:54:14;98607.59;;;11.49;100.00
34586;BME280;20816;50.950;11.108;2023-05-14T04:56:41;98610.72;;;11.64;100.00
34586;BME280;20816;50.950;11.108;2023-05-14T04:59:08;98613.00;;;11.77;100.00
34586;BME280;20816;50.950;11.108;2023-05-14T05:01:34;98610.06;;;11.91;100.00
34586;BME280;20816;50.950;11.108;2023-05-14T05:04:01;98617.03;;;11.92;100.00
34586;BME280;20816;50.950;11.108;2023-05-14T05:06:28;98617.56;;;12.05;100.00
34586;BME280;20816;50.950;11.108;2023-05-14T05:08:55;98625.25;;;12.13;100.00
34586;BME280;20816;50.950;11.108;2023-05-14T05:11:21;98618.19;;;12.15;100.00
34586;BME280;20816;50.950;11.108;2023-05-14T05:13:49;98615.56;;;12.15;100.00
34586;BME280;20816;50.950;11.108;2023-05-14T05:16:16;98619.56;;;12.28;100.00
34586;BME280;20816;50.950;11.108;2023-05-14T05:18:42;98614.00;;;12.37;100.00
34586;BME280;20816;50.950;11.108;2023-05-14T05:21:11;98620.78;;;12.47;100.00
34586;BME280;20816;50.950;11.108;2023-05-14T05:23:37;98627.78;;;12.48;100.00
34586;BME280;20816;50.950;11.108;2023-05-14T05:26:04;98622.81;;;12.67;100.00
34586;BME280;20816;50.950;11.108;2023-05-14T05:28:31;98618.00;;;12.81;100.00
34586;BME280;20816;50.950;11.108;2023-05-14T05:30:57;98623.78;;;12.93;100.00
34586;BME280;20816;50.950;11.108;2023-05-14T05:33:24;98624.41;;;12.73;100.00
34586;BME280;20816;50.950;11.108;2023-05-14T05:35:51;98621.94;;;12.67;100.00
34586;BME280;20816;50.950;11.108;2023-05-14T05:38:17;98624.19;;;12.80;100.00
34586;BME280;20816;50.950;11.108;2023-05-14T05:40:44;98624.34;;;13.02;100.00
34586;BME280;20816;50.950;11.108;2023-05-14T05:43:11;98613.78;;;13.32;100.00
34586;BME280;20816;50.950;11.108;2023-05-14T05:45:39;98619.47;;;13.46;100.00
34586;BME280;20816;50.950;11.108;2023-05-14T05:48:06;98613.66;;;13.35;100.00
34586;BME280;20816;50.950;11.108;2023-05-14T05:50:33;98612.78;;;13.36;100.00
34586;BME280;20816;50.950;11.108;2023-05-14T05:52:59;98607.28;;;13.14;100.00
34586;BME280;20816;50.950;11.108;2023-05-14T05:55:27;98630.13;;;13.15;100.00
34586;BME280;20816;50.950;11.108;2023-05-14T05:57:54;98609.72;;;13.22;100.00
34586;BME280;20816;50.950;11.108;2023-05-14T06:00:21;98617.91;;;13.12;100.00
34586;BME280;20816;50.950;11.108;2023-05-14T06:02:48;98613.28;;;13.21;100.00
34586;BME280;20816;50.950;11.108;2023-05-14T06:05:15;98610.34;;;13.30;100.00
34586;BME280;20816;50.950;11.108;2023-05-14T06:07:42;98613.28;;;13.47;100.00
34586;BME280;20816;50.950;11.108;2023-05-14T06:10:08;98607.97;;;13.73;100.00
34586;BME280;20816;50.950;11.108;2023-05-14T06:12:35;98611.75;;;14.16;100.00
34586;BME280;20816;50.950;11.108;2023-05-14T06:15:02;98604.63;;;14.67;99.33
34586;BME280;20816;50.950;11.108;2023-05-14T06:17:29;98611.16;;;15.46;93.64
34586;BME280;20816;50.950;11.108;2023-05-14T06:19:55;98611.56;;;16.19;91.13
34586;BME280;20816;50.950;11.108;2023-05-14T06:22:22;98608.38;;;16.71;87.85
34586;BME280;20816;50.950;11.108;2023-05-14T06:24:49;98606.22;;;16.79;85.63
34586;BME280;20816;50.950;11.108;2023-05-14T06:27:15;98604.47;;;17.16;84.78
34586;BME280;20816;50.950;11.108;2023-05-14T06:29:42;98606.50;;;17.11;84.22
34586;BME280;20816;50.950;11.108;2023-05-14T06:32:09;98604.00;;;16.89;84.83
34586;BME280;20816;50.950;11.108;2023-05-14T06:34:36;98602.47;;;16.83;86.84
34586;BME280;20816;50.950;11.108;2023-05-14T06:37:02;98592.28;;;17.12;86.25
34586;BME280;20816;50.950;11.108;2023-05-14T06:39:29;98585.56;;;17.75;83.88
34586;BME280;20816;50.950;11.108;2023-05-14T06:41:56;98582.34;;;17.51;82.94
34586;BME280;20816;50.950;11.108;2023-05-14T06:44:22;98581.81;;;17.62;83.20
34586;BME280;20816;50.950;11.108;2023-05-14T06:46:49;98575.25;;;17.86;82.27
34586;BME280;20816;50.950;11.108;2023-05-14T06:49:16;98567.03;;;17.91;80.60
34586;BME280;20816;50.950;11.108;2023-05-14T06:51:43;98571.72;;;18.03;79.90
34586;BME280;20816;50.950;11.108;2023-05-14T06:54:10;98563.38;;;18.27;80.06
34586;BME280;20816;50.950;11.108;2023-05-14T06:56:37;98559.50;;;19.13;76.66
34586;BME280;20816;50.950;11.108;2023-05-14T06:59:03;98561.94;;;19.63;74.54
34586;BME280;20816;50.950;11.108;2023-05-14T07:01:30;98565.03;;;19.85;71.80
34586;BME280;20816;50.950;11.108;2023-05-14T07:03:57;98565.38;;;20.24;67.22
34586;BME280;20816;50.950;11.108;2023-05-14T07:06:23;98566.94;;;20.56;65.50
34586;BME280;20816;50.950;11.108;2023-05-14T07:08:50;98569.31;;;20.61;64.25
34586;BME280;20816;50.950;11.108;2023-05-14T07:11:16;98561.84;;;20.66;65.17
34586;BME280;20816;50.950;11.108;2023-05-14T07:13:43;98558.44;;;20.64;65.27
34586;BME280;20816;50.950;11.108;2023-05-14T07:16:10;98561.22;;;20.48;67.73
34586;BME280;20816;50.950;11.108;2023-05-14T07:18:37;98559.22;;;19.93;67.01
34586;BME280;20816;50.950;11.108;2023-05-14T07:21:04;98548.78;;;19.60;68.32
34586;BME280;20816;50.950;11.108;2023-05-14T07:23:34;98552.69;;;20.13;67.34
34586;BME280;20816;50.950;11.108;2023-05-14T07:26:06;98549.84;;;20.59;66.35
34586;BME280;20816;50.950;11.108;2023-05-14T07:28:33;98549.84;;;20.30;66.65
34586;BME280;20816;50.950;11.108;2023-05-14T07:31:00;98543.66;;;20.30;65.11
34586;BME280;20816;50.950;11.108;2023-05-14T07:33:27;98543.25;;;20.07;65.86
34586;BME280;20816;50.950;11.108;2023-05-14T07:35:54;98539.97;;;20.47;66.15
34586;BME280;20816;50.950;11.108;2023-05-14T07:38:20;98536.59;;;20.71;66.32
34586;BME280;20816;50.950;11.108;2023-05-14T07:40:47;98531.72;;;20.64;65.71
34586;BME280;20816;50.950;11.108;2023-05-14T07:43:14;98529.28;;;20.88;64.71
34586;BME280;20816;50.950;11.108;2023-05-14T07:45:40;98524.44;;;21.07;63.89
34586;BME280;20816;50.950;11.108;2023-05-14T07:48:07;98522.63;;;21.08;64.52
34586;BME280;20816;50.950;11.108;2023-05-14T07:50:34;98518.06;;;21.10;63.66
34586;BME280;20816;50.950;11.108;2023-05-14T07:53:01;98518.84;;;20.70;64.57
34586;BME280;20816;50.950;11.108;2023-05-14T07:55:27;98526.72;;;20.86;63.96
34586;BME280;20816;50.950;11.108;2023-05-14T07:57:54;98516.94;;;20.99;63.53
34586;BME280;20816;50.950;11.108;2023-05-14T08:00:21;98510.75;;;20.58;64.46
34586;BME280;20816;50.950;11.108;2023-05-14T08:02:48;98511.84;;;21.09;63.69
34586;BME280;20816;50.950;11.108;2023-05-14T08:05:16;98510.06;;;21.37;61.86
34586;BME280;20816;50.950;11.108;2023-05-14T08:07:43;98508.34;;;21.48;60.96
34586;BME280;20816;50.950;11.108;2023-05-14T08:10:10;98503.59;;;21.79;59.33
34586;BME280;20816;50.950;11.108;2023-05-14T08:12:37;98497.13;;;21.43;59.49
34586;BME280;20816;50.950;11.108;2023-05-14T08:15:05;98496.72;;;21.22;61.60
34586;BME280;20816;50.950;11.108;2023-05-14T08:17:33;98501.56;;;21.03;61.78
34586;BME280;20816;50.950;11.108;2023-05-14T08:19:59;98495.63;;;21.25;62.36
34586;BME280;20816;50.950;11.108;2023-05-14T08:22:26;98494.81;;;21.90;60.11
34586;BME280;20816;50.950;11.108;2023-05-14T08:24:53;98498.53;;;21.62;59.92
34586;BME280;20816;50.950;11.108;2023-05-14T08:27:20;98498.97;;;22.06;60.06
34586;BME280;20816;50.950;11.108;2023-05-14T08:29:47;98498.28;;;22.66;58.93
34586;BME280;20816;50.950;11.108;2023-05-14T08:32:13;98501.69;;;22.69;57.97
34586;BME280;20816;50.950;11.108;2023-05-14T08:34:49;98489.25;;;22.31;57.77
34586;BME280;20816;50.950;11.108;2023-05-14T08:37:17;98497.88;;;21.45;59.50
34586;BME280;20816;50.950;11.108;2023-05-14T08:39:44;98494.81;;;21.77;60.38
34586;BME280;20816;50.950;11.108;2023-05-14T08:42:12;98493.22;;;22.13;59.22
34586;BME280;20816;50.950;11.108;2023-05-14T08:44:47;98490.88;;;22.21;58.13
34586;BME280;20816;50.950;11.108;2023-05-14T08:47:14;98486.56;;;22.05;59.17
34586;BME280;20816;50.950;11.108;2023-05-14T08:49:46;98490.41;;;22.39;59.34
34586;BME280;20816;50.950;11.108;2023-05-14T08:52:15;98486.75;;;22.53;59.01
34586;BME280;20816;50.950;11.108;2023-05-14T08:54:41;98486.31;;;21.58;61.03
34586;BME280;20816;50.950;11.108;2023-05-14T08:57:09;98477.56;;;21.81;60.99
34586;BME280;20816;50.950;11.108;2023-05-14T08:59:36;98471.50;;;21.92;59.54
34586;BME280;20816;50.950;11.108;2023-05-14T09:02:04;98482.47;;;21.74;58.93
34586;BME280;20816;50.950;11.108;2023-05-14T09:04:32;98482.72;;;21.97;57.33
34586;BME280;20816;50.950;11.108;2023-05-14T09:07:01;98474.78;;;21.95;58.62
34586;BME280;20816;50.950;11.108;2023-05-14T09:09:28;98474.94;;;23.16;58.12
34586;BME280;20816;50.950;11.108;2023-05-14T09:11:55;98475.97;;;23.27;56.11
34586;BME280;20816;50.950;11.108;2023-05-14T09:14:22;98466.09;;;23.27;57.08
34586;BME280;20816;50.950;11.108;2023-05-14T09:16:50;98479.44;;;22.55;56.58
34586;BME280;20816;50.950;11.108;2023-05-14T09:19:17;98462.66;;;22.90;58.04
34586;BME280;20816;50.950;11.108;2023-05-14T09:21:46;98466.91;;;22.80;57.54
34586;BME280;20816;50.950;11.108;2023-05-14T09:24:24;98452.00;;;23.12;55.83
34586;BME280;20816;50.950;11.108;2023-05-14T09:26:52;98457.53;;;23.57;55.45
34586;BME280;20816;50.950;11.108;2023-05-14T09:29:19;98466.13;;;23.85;54.45
34586;BME280;20816;50.950;11.108;2023-05-14T09:31:49;98458.47;;;23.80;54.55
34586;BME280;20816;50.950;11.108;2023-05-14T09:34:26;98460.34;;;23.56;55.18
34586;BME280;20816;50.950;11.108;2023-05-14T09:36:58;98461.06;;;24.04;55.68
34586;BME280;20816;50.950;11.108;2023-05-14T09:39:25;98450.94;;;23.15;55.89
34586;BME280;20816;50.950;11.108;2023-05-14T09:41:53;98445.88;;;22.26;57.94
34586;BME280;20816;50.950;11.108;2023-05-14T09:44:21;98451.44;;;22.23;59.12
34586;BME280;20816;50.950;11.108;2023-05-14T09:46:49;98445.03;;;22.13;59.05
34586;BME280;20816;50.950;11.108;2023-05-14T09:49:16;98440.63;;;21.35;60.19
34586;BME280;20816;50.950;11.108;2023-05-14T09:51:43;98433.84;;;22.44;58.59
34586;BME280;20816;50.950;11.108;2023-05-14T09:54:10;98443.63;;;22.20;58.94
34586;BME280;20816;50.950;11.108;2023-05-14T09:56:36;98443.31;;;21.35;58.45
34586;BME280;20816;50.950;11.108;2023-05-14T09:59:05;98436.16;;;21.74;57.85
34586;BME280;20816;50.950;11.108;2023-05-14T10:01:32;98441.59;;;22.23;57.97
34586;BME280;20816;50.950;11.108;2023-05-14T10:03:59;98434.13;;;21.52;59.27
34586;BME280;20816;50.950;11.108;2023-05-14T10:06:30;98432.00;;;21.70;60.17
34586;BME280;20816;50.950;11.108;2023-05-14T10:09:07;98440.69;;;21.21;62.35
34586;BME280;20816;50.950;11.108;2023-05-14T10:11:37;98436.03;;;20.70;62.27
34586;BME280;20816;50.950;11.108;2023-05-14T10:14:17;98430.09;;;20.38;62.69
34586;BME280;20816;50.950;11.108;2023-05-14T10:16:48;98436.25;;;19.98;63.86
34586;BME280;20816;50.950;11.108;2023-05-14T10:19:16;98439.00;;;19.96;63.94
34586;BME280;20816;50.950;11.108;2023-05-14T10:21:47;98438.72;;;20.01;62.88
34586;BME280;20816;50.950;11.108;2023-05-14T10:24:14;98423.50;;;20.98;60.93
34586;BME280;20816;50.950;11.108;2023-05-14T10:26:41;98417.66;;;22.70;57.98
34586;BME280;20816;50.950;11.108;2023-05-14T10:29:08;98410.22;;;22.86;55.54
34586;BME280;20816;50.950;11.108;2023-05-14T10:34:34;98409.00;;;22.42;54.43
34586;BME280;20816;50.950;11.108;2023-05-14T10:37:10;98416.34;;;21.89;55.56
34586;BME280;20816;50.950;11.108;2023-05-14T10:39:57;98411.00;;;20.98;58.38
34586;BME280;20816;50.950;11.108;2023-05-14T10:42:34;98422.66;;;20.43;60.14
34586;BME280;20816;50.950;11.108;2023-05-14T10:45:07;98404.38;;;21.44;60.44
34586;BME280;20816;50.950;11.108;2023-05-14T10:47:36;98406.59;;;22.14;58.97
34586;BME280;20816;50.950;11.108;2023-05-14T10:50:05;98395.06;;;22.98;55.90
34586;BME280;20816;50.950;11.108;2023-05-14T10:52:32;98401.72;;;23.62;55.28
34586;BME280;20816;50.950;11.108;2023-05-14T10:55:02;98399.50;;;23.67;52.90
34586;BME280;20816;50.950;11.108;2023-05-14T10:57:30;98401.47;;;23.65;53.45
34586;BME280;20816;50.950;11.108;2023-05-14T11:00:00;98393.38;;;22.84;54.65
34586;BME280;20816;50.950;11.108;2023-05-14T11:02:37;98401.41;;;22.36;55.81
34586;BME280;20816;50.950;11.108;2023-05-14T11:05:05;98399.00;;;21.82;57.43
34586;BME280;20816;50.950;11.108;2023-05-14T11:07:39;98389.84;;;21.61;57.75
34586;BME280;20816;50.950;11.108;2023-05-14T11:10:08;98390.91;;;23.05;54.85
34586;BME280;20816;50.950;11.108;2023-05-14T11:12:37;98377.31;;;23.76;52.72
34586;BME280;20816;50.950;11.108;2023-05-14T11:15:19;98378.13;;;22.97;52.76
34586;BME280;20816;50.950;11.108;2023-05-14T11:17:47;98382.66;;;22.36;54.67
34586;BME280;20816;50.950;11.108;2023-05-14T11:20:14;98385.94;;;22.03;56.21
34586;BME280;20816;50.950;11.108;2023-05-14T11:22:43;98377.50;;;21.71;56.23
34586;BME280;20816;50.950;11.108;2023-05-14T11:25:11;98380.84;;;21.36;57.45
34586;BME280;20816;50.950;11.108;2023-05-14T11:27:42;98374.81;;;21.20;58.13
34586;BME280;20816;50.950;11.108;2023-05-14T11:30:17;98378.06;;;21.50;58.48
34586;BME280;20816;50.950;11.108;2023-05-14T11:32:45;98374.34;;;22.52;55.43
34586;BME280;20816;50.950;11.108;2023-05-14T11:35:13;98366.38;;;22.87;52.62
34586;BME280;20816;50.950;11.108;2023-05-14T11:37:41;98363.53;;;23.12;52.77
34586;BME280;20816;50.950;11.108;2023-05-14T11:40:14;98364.22;;;23.03;53.68
34586;BME280;20816;50.950;11.108;2023-05-14T11:42:44;98359.09;;;22.89;54.44
34586;BME280;20816;50.950;11.108;2023-05-14T11:45:12;98353.72;;;22.89;54.93
34586;BME280;20816;50.950;11.108;2023-05-14T11:47:40;98349.94;;;22.91;55.33
34586;BME280;20816;50.950;11.108;2023-05-14T11:50:07;98349.38;;;22.51;56.19
34586;BME280;20816;50.950;11.108;2023-05-14T11:52:39;98357.22;;;22.05;56.20
34586;BME280;20816;50.950;11.108;2023-05-14T11:55:10;98352.13;;;21.89;56.30
34586;BME280;20816;50.950;11.108;2023-05-14T11:57:38;98348.53;;;21.52;59.37
34586;BME280;20816;50.950;11.108;2023-05-14T12:00:07;98344.31;;;21.73;57.35
34586;BME280;20816;50.950;11.108;2023-05-14T12:02:34;98341.94;;;22.31;57.54
34586;BME280;20816;50.950;11.108;2023-05-14T12:05:02;98332.44;;;23.79;55.10
34586;BME280;20816;50.950;11.108;2023-05-14T12:07:28;98325.09;;;23.92;52.66
34586;BME280;20816;50.950;11.108;2023-05-14T12:10:00;98316.00;;;24.38;52.37
34586;BME280;20816;50.950;11.108;2023-05-14T12:12:26;98327.03;;;23.90;50.75
34586;BME280;20816;50.950;11.108;2023-05-14T12:14:53;98332.38;;;23.34;51.76
34586;BME280;20816;50.950;11.108;2023-05-14T12:17:21;98329.75;;;22.75;54.28
34586;BME280;20816;50.950;11.108;2023-05-14T12:19:50;98329.09;;;22.36;55.15
34586;BME280;20816;50.950;11.108;2023-05-14T12:22:19;98326.97;;;22.76;55.71
34586;BME280;20816;50.950;11.108;2023-05-14T12:24:53;98320.09;;;22.37;55.93
34586;BME280;20816;50.950;11.108;2023-05-14T12:27:23;98317.06;;;22.42;55.68
34586;BME280;20816;50.950;11.108;2023-05-14T12:29:58;98312.78;;;22.39;54.39
34586;BME280;20816;50.950;11.108;2023-05-14T12:32:38;98312.09;;;23.07;54.68
34586;BME280;20816;50.950;11.108;2023-05-14T12:35:08;98311.38;;;23.28;53.12
34586;BME280;20816;50.950;11.108;2023-05-14T12:37:35;98304.47;;;23.47;54.08
34586;BME280;20816;50.950;11.108;2023-05-14T12:40:03;98304.00;;;22.96;55.75
34586;BME280;20816;50.950;11.108;2023-05-14T12:42:34;98303.34;;;23.16;55.56
34586;BME280;20816;50.950;11.108;2023-05-14T12:45:02;98291.91;;;23.48;53.75
34586;BME280;20816;50.950;11.108;2023-05-14T12:47:32;98298.34;;;23.23;53.42
34586;BME280;20816;50.950;11.108;2023-05-14T12:49:59;98295.88;;;23.20;53.29
34586;BME280;20816;50.950;11.108;2023-05-14T12:52:26;98290.53;;;22.74;52.92
34586;BME280;20816;50.950;11.108;2023-05-14T12:55:08;98296.06;;;22.48;55.78